CheckWX is a tool to help pilots better visualize weather data.  It is not intended as a substitute for an official pre-flight weather briefing.

12:47:05 UTC

KMUT METAR
Muscatine Municipal Airport
Muscatine, Iowa, USA
Current

12 mins ago

KMUT 261235Z AUTO 31012KT 10SM CLR 09/00 A2997 RMK AO2
Observed
Apr-26 @ 12:35 UTC
Wind
  • 310° at 12 KTS
Visibility
10 SM
Flight Rules
VFR
Cloud Levels
  • Clear skies
Temperature
C / 48°F
Dewpoint
C / 32°F
Humidity
54%
Altimeter
29.97" Hg
Pressure
1014.92 hPa
Previous

32 mins ago

KMUT 261215Z AUTO 31015KT 10SM CLR 09/00 A2996 RMK AO2
Observed
Apr-26 @ 12:15 UTC
Wind
  • 310° at 15 KTS
Visibility
10 SM
Flight Rules
VFR
Cloud Levels
  • Clear skies
Temperature
C / 48°F
Dewpoint
C / 32°F
Humidity
54%
Altimeter
29.96" Hg
Pressure
1014.52 hPa
Previous

52 mins ago

KMUT 261155Z AUTO 30015KT 10SM CLR 08/00 A2995 RMK AO2
Observed
Apr-26 @ 11:55 UTC
Wind
  • 300° at 15 KTS
Visibility
10 SM
Flight Rules
VFR
Cloud Levels
  • Clear skies
Temperature
C / 46°F
Dewpoint
C / 32°F
Humidity
57%
Altimeter
29.95" Hg
Pressure
1014.22 hPa